sensor_id;sensor_type;location;lat;lon;timestamp;temperature;humidity
39017;DHT22;24784;45.582;5.276;2023-11-21T00:00:21;8.40;99.90
39017;DHT22;24784;45.582;5.276;2023-11-21T00:02:47;8.30;99.90
39017;DHT22;24784;45.582;5.276;2023-11-21T00:05:13;8.30;99.90
39017;DHT22;24784;45.582;5.276;2023-11-21T00:07:40;8.30;99.90
39017;DHT22;24784;45.582;5.276;2023-11-21T00:10:06;8.30;99.90
39017;DHT22;24784;45.582;5.276;2023-11-21T00:12:34;8.20;99.90
39017;DHT22;24784;45.582;5.276;2023-11-21T00:14:59;8.10;99.90
39017;DHT22;24784;45.582;5.276;2023-11-21T00:17:25;8.20;99.90
39017;DHT22;24784;45.582;5.276;2023-11-21T00:19:51;8.10;99.90
39017;DHT22;24784;45.582;5.276;2023-11-21T00:22:19;8.10;99.90
39017;DHT22;24784;45.582;5.276;2023-11-21T00:24:45;8.10;99.90
39017;DHT22;24784;45.582;5.276;2023-11-21T00:27:11;8.00;99.90
39017;DHT22;24784;45.582;5.276;2023-11-21T00:29:37;8.00;99.90
39017;DHT22;24784;45.582;5.276;2023-11-21T00:32:04;8.10;99.90
39017;DHT22;24784;45.582;5.276;2023-11-21T00:34:31;8.00;99.90
39017;DHT22;24784;45.582;5.276;2023-11-21T00:36:57;8.00;99.90
39017;DHT22;24784;45.582;5.276;2023-11-21T00:39:22;8.00;99.90
39017;DHT22;24784;45.582;5.276;2023-11-21T00:41:48;8.10;99.90
39017;DHT22;24784;45.582;5.276;2023-11-21T00:44:14;8.00;99.90
39017;DHT22;24784;45.582;5.276;2023-11-21T00:46:39;8.10;99.90
39017;DHT22;24784;45.582;5.276;2023-11-21T00:49:05;8.10;99.90
39017;DHT22;24784;45.582;5.276;2023-11-21T00:51:31;8.10;99.90
39017;DHT22;24784;45.582;5.276;2023-11-21T00:53:56;8.00;99.90
39017;DHT22;24784;45.582;5.276;2023-11-21T00:56:22;7.90;99.90
39017;DHT22;24784;45.582;5.276;2023-11-21T00:58:49;7.90;99.90
39017;DHT22;24784;45.582;5.276;2023-11-21T01:01:20;7.90;99.90
39017;DHT22;24784;45.582;5.276;2023-11-21T01:03:48;7.90;99.90
39017;DHT22;24784;45.582;5.276;2023-11-21T01:06:15;7.90;99.90
39017;DHT22;24784;45.582;5.276;2023-11-21T01:08:40;7.80;99.90
39017;DHT22;24784;45.582;5.276;2023-11-21T01:11:06;7.80;99.90
39017;DHT22;24784;45.582;5.276;2023-11-21T01:13:34;7.80;99.90
39017;DHT22;24784;45.582;5.276;2023-11-21T01:16:01;7.70;99.90
39017;DHT22;24784;45.582;5.276;2023-11-21T01:18:26;7.60;99.90
39017;DHT22;24784;45.582;5.276;2023-11-21T01:20:52;7.50;99.90
39017;DHT22;24784;45.582;5.276;2023-11-21T01:23:20;7.50;99.90
39017;DHT22;24784;45.582;5.276;2023-11-21T01:25:46;7.50;99.90
39017;DHT22;24784;45.582;5.276;2023-11-21T01:28:12;7.50;99.90
39017;DHT22;24784;45.582;5.276;2023-11-21T01:30:37;7.50;99.90
39017;DHT22;24784;45.582;5.276;2023-11-21T01:33:03;7.50;99.90
39017;DHT22;24784;45.582;5.276;2023-11-21T01:35:29;7.50;99.90
39017;DHT22;24784;45.582;5.276;2023-11-21T01:37:55;7.40;99.90
39017;DHT22;24784;45.582;5.276;2023-11-21T01:40:21;7.40;99.90
39017;DHT22;24784;45.582;5.276;2023-11-21T01:42:46;7.40;99.90
39017;DHT22;24784;45.582;5.276;2023-11-21T01:45:14;7.50;99.90
39017;DHT22;24784;45.582;5.276;2023-11-21T01:47:41;7.50;99.90
39017;DHT22;24784;45.582;5.276;2023-11-21T01:50:08;7.50;99.90
39017;DHT22;24784;45.582;5.276;2023-11-21T01:52:36;7.40;99.90
39017;DHT22;24784;45.582;5.276;2023-11-21T01:55:03;7.40;99.90
39017;DHT22;24784;45.582;5.276;2023-11-21T01:57:30;7.40;99.90
39017;DHT22;24784;45.582;5.276;2023-11-21T01:59:56;7.40;99.90
39017;DHT22;24784;45.582;5.276;2023-11-21T02:02:24;7.40;99.90
39017;DHT22;24784;45.582;5.276;2023-11-21T02:04:49;7.40;99.90
39017;DHT22;24784;45.582;5.276;2023-11-21T02:07:15;7.40;99.90
39017;DHT22;24784;45.582;5.276;2023-11-21T02:09:40;7.40;99.90
39017;DHT22;24784;45.582;5.276;2023-11-21T02:12:08;7.40;99.90
39017;DHT22;24784;45.582;5.276;2023-11-21T02:14:35;7.40;99.90
39017;DHT22;24784;45.582;5.276;2023-11-21T02:17:02;7.40;99.90
39017;DHT22;24784;45.582;5.276;2023-11-21T02:19:28;7.30;99.90
39017;DHT22;24784;45.582;5.276;2023-11-21T02:21:57;7.40;99.90
39017;DHT22;24784;45.582;5.276;2023-11-21T02:24:28;7.40;99.90
39017;DHT22;24784;45.582;5.276;2023-11-21T02:26:54;7.40;99.90
39017;DHT22;24784;45.582;5.276;2023-11-21T02:29:20;7.40;99.90
39017;DHT22;24784;45.582;5.276;2023-11-21T02:31:54;7.30;99.90
39017;DHT22;24784;45.582;5.276;2023-11-21T02:34:21;7.40;99.90
39017;DHT22;24784;45.582;5.276;2023-11-21T02:36:47;7.40;99.90
39017;DHT22;24784;45.582;5.276;2023-11-21T02:39:15;7.30;99.90
39017;DHT22;24784;45.582;5.276;2023-11-21T02:41:42;7.40;99.90
39017;DHT22;24784;45.582;5.276;2023-11-21T02:44:08;7.30;99.90
39017;DHT22;24784;45.582;5.276;2023-11-21T02:46:34;7.40;99.90
39017;DHT22;24784;45.582;5.276;2023-11-21T02:49:03;7.30;99.90
39017;DHT22;24784;45.582;5.276;2023-11-21T02:51:31;7.30;99.90
39017;DHT22;24784;45.582;5.276;2023-11-21T02:53:57;7.40;99.90
39017;DHT22;24784;45.582;5.276;2023-11-21T02:56:28;7.30;99.90
39017;DHT22;24784;45.582;5.276;2023-11-21T02:58:57;7.30;99.90
39017;DHT22;24784;45.582;5.276;2023-11-21T03:01:22;7.40;99.90
39017;DHT22;24784;45.582;5.276;2023-11-21T03:03:51;7.40;99.90
39017;DHT22;24784;45.582;5.276;2023-11-21T03:06:20;7.40;99.90
39017;DHT22;24784;45.582;5.276;2023-11-21T03:08:46;7.40;99.90
39017;DHT22;24784;45.582;5.276;2023-11-21T03:11:13;7.40;99.90
39017;DHT22;24784;45.582;5.276;2023-11-21T03:13:39;7.40;99.90
39017;DHT22;24784;45.582;5.276;2023-11-21T03:16:10;7.40;99.90
39017;DHT22;24784;45.582;5.276;2023-11-21T03:18:36;7.40;99.90
39017;DHT22;24784;45.582;5.276;2023-11-21T03:21:03;7.40;99.90
39017;DHT22;24784;45.582;5.276;2023-11-21T03:23:28;7.50;99.90
39017;DHT22;24784;45.582;5.276;2023-11-21T03:25:54;7.50;99.90
39017;DHT22;24784;45.582;5.276;2023-11-21T03:28:19;7.50;99.90
39017;DHT22;24784;45.582;5.276;2023-11-21T03:30:45;7.50;99.90
39017;DHT22;24784;45.582;5.276;2023-11-21T03:33:10;7.60;99.90
39017;DHT22;24784;45.582;5.276;2023-11-21T03:35:36;7.50;99.90
39017;DHT22;24784;45.582;5.276;2023-11-21T03:38:02;7.50;99.90
39017;DHT22;24784;45.582;5.276;2023-11-21T03:40:27;7.50;99.90
39017;DHT22;24784;45.582;5.276;2023-11-21T03:42:53;7.50;99.90
39017;DHT22;24784;45.582;5.276;2023-11-21T03:45:18;7.40;99.90
39017;DHT22;24784;45.582;5.276;2023-11-21T03:47:44;7.50;99.90
39017;DHT22;24784;45.582;5.276;2023-11-21T03:50:10;7.50;99.90
39017;DHT22;24784;45.582;5.276;2023-11-21T03:52:35;7.50;99.90
39017;DHT22;24784;45.582;5.276;2023-11-21T03:55:02;7.60;99.90
39017;DHT22;24784;45.582;5.276;2023-11-21T03:57:28;7.60;99.90
39017;DHT22;24784;45.582;5.276;2023-11-21T03:59:53;7.60;99.90
39017;DHT22;24784;45.582;5.276;2023-11-21T04:02:19;7.50;99.90
39017;DHT22;24784;45.582;5.276;2023-11-21T04:04:45;7.50;99.90
39017;DHT22;24784;45.582;5.276;2023-11-21T04:07:11;7.60;99.90
39017;DHT22;24784;45.582;5.276;2023-11-21T04:09:39;7.60;99.90
39017;DHT22;24784;45.582;5.276;2023-11-21T04:12:05;7.60;99.90
39017;DHT22;24784;45.582;5.276;2023-11-21T04:14:30;7.60;99.90
39017;DHT22;24784;45.582;5.276;2023-11-21T04:16:57;7.60;99.90
39017;DHT22;24784;45.582;5.276;2023-11-21T04:19:22;7.60;99.90
39017;DHT22;24784;45.582;5.276;2023-11-21T04:21:48;7.60;99.90
39017;DHT22;24784;45.582;5.276;2023-11-21T04:24:14;7.60;99.90
39017;DHT22;24784;45.582;5.276;2023-11-21T04:26:39;7.70;99.90
39017;DHT22;24784;45.582;5.276;2023-11-21T04:29:05;7.70;99.90
39017;DHT22;24784;45.582;5.276;2023-11-21T04:31:31;7.70;99.90
39017;DHT22;24784;45.582;5.276;2023-11-21T04:33:57;7.60;99.90
39017;DHT22;24784;45.582;5.276;2023-11-21T04:36:22;7.50;99.90
39017;DHT22;24784;45.582;5.276;2023-11-21T04:38:48;7.50;99.90
39017;DHT22;24784;45.582;5.276;2023-11-21T04:41:14;7.60;99.90
39017;DHT22;24784;45.582;5.276;2023-11-21T04:43:39;7.60;99.90
39017;DHT22;24784;45.582;5.276;2023-11-21T04:46:05;7.60;99.90
39017;DHT22;24784;45.582;5.276;2023-11-21T04:48:32;7.70;99.90
39017;DHT22;24784;45.582;5.276;2023-11-21T04:50:58;7.60;99.90
39017;DHT22;24784;45.582;5.276;2023-11-21T04:53:24;7.70;99.90
39017;DHT22;24784;45.582;5.276;2023-11-21T04:55:49;7.60;99.90
39017;DHT22;24784;45.582;5.276;2023-11-21T04:58:15;7.70;99.90
39017;DHT22;24784;45.582;5.276;2023-11-21T05:00:40;7.70;99.90
39017;DHT22;24784;45.582;5.276;2023-11-21T05:03:07;7.70;99.90
39017;DHT22;24784;45.582;5.276;2023-11-21T05:05:33;7.70;99.90
39017;DHT22;24784;45.582;5.276;2023-11-21T05:07:59;7.70;99.90
39017;DHT22;24784;45.582;5.276;2023-11-21T05:10:25;7.80;99.90
39017;DHT22;24784;45.582;5.276;2023-11-21T05:12:50;7.80;99.90
39017;DHT22;24784;45.582;5.276;2023-11-21T05:15:16;7.80;99.90
39017;DHT22;24784;45.582;5.276;2023-11-21T05:17:46;7.80;99.90
39017;DHT22;24784;45.582;5.276;2023-11-21T05:20:19;7.80;99.90
39017;DHT22;24784;45.582;5.276;2023-11-21T05:22:49;7.80;99.90
39017;DHT22;24784;45.582;5.276;2023-11-21T05:25:14;7.80;99.90
39017;DHT22;24784;45.582;5.276;2023-11-21T05:27:40;7.80;99.90
39017;DHT22;24784;45.582;5.276;2023-11-21T05:30:06;7.80;99.90
39017;DHT22;24784;45.582;5.276;2023-11-21T05:32:33;7.80;99.90
39017;DHT22;24784;45.582;5.276;2023-11-21T05:34:59;7.80;99.90
39017;DHT22;24784;45.582;5.276;2023-11-21T05:37:24;7.90;99.90
39017;DHT22;24784;45.582;5.276;2023-11-21T05:39:52;7.90;99.90
39017;DHT22;24784;45.582;5.276;2023-11-21T05:42:18;7.90;99.90
39017;DHT22;24784;45.582;5.276;2023-11-21T05:44:44;7.90;99.90
39017;DHT22;24784;45.582;5.276;2023-11-21T05:47:10;7.90;99.90
39017;DHT22;24784;45.582;5.276;2023-11-21T05:49:36;7.90;99.90
39017;DHT22;24784;45.582;5.276;2023-11-21T05:52:02;7.90;99.90
39017;DHT22;24784;45.582;5.276;2023-11-21T05:54:28;7.90;99.90
39017;DHT22;24784;45.582;5.276;2023-11-21T05:56:54;7.90;99.90
39017;DHT22;24784;45.582;5.276;2023-11-21T05:59:20;7.90;99.90
39017;DHT22;24784;45.582;5.276;2023-11-21T06:01:46;8.00;99.90
39017;DHT22;24784;45.582;5.276;2023-11-21T06:04:12;7.90;99.90
39017;DHT22;24784;45.582;5.276;2023-11-21T06:06:38;8.00;99.90
39017;DHT22;24784;45.582;5.276;2023-11-21T06:09:04;8.00;99.90
39017;DHT22;24784;45.582;5.276;2023-11-21T06:11:31;8.00;99.90
39017;DHT22;24784;45.582;5.276;2023-11-21T06:13:57;8.00;99.90
39017;DHT22;24784;45.582;5.276;2023-11-21T06:16:23;8.00;99.90
39017;DHT22;24784;45.582;5.276;2023-11-21T06:18:49;8.00;99.90
39017;DHT22;24784;45.582;5.276;2023-11-21T06:21:15;8.00;99.90
39017;DHT22;24784;45.582;5.276;2023-11-21T06:23:42;8.00;99.90
39017;DHT22;24784;45.582;5.276;2023-11-21T06:26:08;8.00;99.90
39017;DHT22;24784;45.582;5.276;2023-11-21T06:28:35;8.00;99.90
39017;DHT22;24784;45.582;5.276;2023-11-21T06:31:04;8.00;99.90
39017;DHT22;24784;45.582;5.276;2023-11-21T06:33:33;8.00;99.90
39017;DHT22;24784;45.582;5.276;2023-11-21T06:35:59;8.00;99.90
39017;DHT22;24784;45.582;5.276;2023-11-21T06:38:28;8.00;99.90
39017;DHT22;24784;45.582;5.276;2023-11-21T06:40:56;8.00;99.90
39017;DHT22;24784;45.582;5.276;2023-11-21T06:43:23;8.00;99.90
39017;DHT22;24784;45.582;5.276;2023-11-21T06:45:49;8.00;99.90
39017;DHT22;24784;45.582;5.276;2023-11-21T06:48:15;8.00;99.90
39017;DHT22;24784;45.582;5.276;2023-11-21T06:50:40;8.00;99.90
39017;DHT22;24784;45.582;5.276;2023-11-21T06:53:07;8.10;99.90
39017;DHT22;24784;45.582;5.276;2023-11-21T06:55:33;8.10;99.90
39017;DHT22;24784;45.582;5.276;2023-11-21T06:57:59;8.00;99.90
39017;DHT22;24784;45.582;5.276;2023-11-21T07:00:25;8.00;99.90
39017;DHT22;24784;45.582;5.276;2023-11-21T07:02:53;8.00;99.90
39017;DHT22;24784;45.582;5.276;2023-11-21T07:05:20;8.00;99.90
39017;DHT22;24784;45.582;5.276;2023-11-21T07:07:47;8.00;99.90
39017;DHT22;24784;45.582;5.276;2023-11-21T07:10:13;8.00;99.90
39017;DHT22;24784;45.582;5.276;2023-11-21T07:12:39;8.00;99.90
39017;DHT22;24784;45.582;5.276;2023-11-21T07:15:06;8.10;99.90
39017;DHT22;24784;45.582;5.276;2023-11-21T07:17:35;8.10;99.90
39017;DHT22;24784;45.582;5.276;2023-11-21T07:20:03;8.10;99.90
39017;DHT22;24784;45.582;5.276;2023-11-21T07:22:29;8.10;99.90
39017;DHT22;24784;45.582;5.276;2023-11-21T07:24:55;8.10;99.90
39017;DHT22;24784;45.582;5.276;2023-11-21T07:27:24;8.10;99.90
39017;DHT22;24784;45.582;5.276;2023-11-21T07:29:49;8.10;99.90
39017;DHT22;24784;45.582;5.276;2023-11-21T07:32:15;8.10;99.90
39017;DHT22;24784;45.582;5.276;2023-11-21T07:34:41;8.10;99.90
39017;DHT22;24784;45.582;5.276;2023-11-21T07:37:07;8.20;99.90
39017;DHT22;24784;45.582;5.276;2023-11-21T07:39:34;8.20;99.90
39017;DHT22;24784;45.582;5.276;2023-11-21T07:42:01;8.20;99.90
39017;DHT22;24784;45.582;5.276;2023-11-21T07:44:28;8.20;99.90
39017;DHT22;24784;45.582;5.276;2023-11-21T07:46:54;8.10;99.90
39017;DHT22;24784;45.582;5.276;2023-11-21T07:49:25;8.20;99.90
39017;DHT22;24784;45.582;5.276;2023-11-21T07:51:52;8.20;99.90
39017;DHT22;24784;45.582;5.276;2023-11-21T07:54:18;8.20;99.90
39017;DHT22;24784;45.582;5.276;2023-11-21T07:56:43;8.20;99.90
39017;DHT22;24784;45.582;5.276;2023-11-21T07:59:09;8.20;99.90
39017;DHT22;24784;45.582;5.276;2023-11-21T08:01:35;8.20;99.90
39017;DHT22;24784;45.582;5.276;2023-11-21T08:04:00;8.20;99.90
39017;DHT22;24784;45.582;5.276;2023-11-21T08:06:32;8.30;99.90
39017;DHT22;24784;45.582;5.276;2023-11-21T08:08:59;8.30;99.90
39017;DHT22;24784;45.582;5.276;2023-11-21T08:11:25;8.30;99.90
39017;DHT22;24784;45.582;5.276;2023-11-21T08:13:51;8.30;99.90
39017;DHT22;24784;45.582;5.276;2023-11-21T08:16:17;8.40;99.90
39017;DHT22;24784;45.582;5.276;2023-11-21T08:18:43;8.50;99.90
39017;DHT22;24784;45.582;5.276;2023-11-21T08:21:08;8.40;99.90
39017;DHT22;24784;45.582;5.276;2023-11-21T08:23:34;8.40;99.90
39017;DHT22;24784;45.582;5.276;2023-11-21T08:26:00;8.40;99.90
39017;DHT22;24784;45.582;5.276;2023-11-21T08:28:28;8.50;99.90
39017;DHT22;24784;45.582;5.276;2023-11-21T08:30:54;8.40;99.90
39017;DHT22;24784;45.582;5.276;2023-11-21T08:33:19;8.40;99.90
39017;DHT22;24784;45.582;5.276;2023-11-21T08:35:45;8.40;99.90
39017;DHT22;24784;45.582;5.276;2023-11-21T08:38:11;8.40;99.90
39017;DHT22;24784;45.582;5.276;2023-11-21T08:40:37;8.40;99.90
39017;DHT22;24784;45.582;5.276;2023-11-21T08:43:03;8.50;99.90
39017;DHT22;24784;45.582;5.276;2023-11-21T08:45:30;8.50;99.90
39017;DHT22;24784;45.582;5.276;2023-11-21T08:47:56;8.50;99.90
39017;DHT22;24784;45.582;5.276;2023-11-21T08:50:22;8.50;99.90
39017;DHT22;24784;45.582;5.276;2023-11-21T08:52:48;8.50;99.90
39017;DHT22;24784;45.582;5.276;2023-11-21T08:55:14;8.50;99.90
39017;DHT22;24784;45.582;5.276;2023-11-21T08:57:40;8.50;99.90
39017;DHT22;24784;45.582;5.276;2023-11-21T09:00:10;8.50;99.90
39017;DHT22;24784;45.582;5.276;2023-11-21T09:02:39;8.50;99.90
39017;DHT22;24784;45.582;5.276;2023-11-21T09:05:08;8.50;99.90
39017;DHT22;24784;45.582;5.276;2023-11-21T09:07:35;8.50;99.90
39017;DHT22;24784;45.582;5.276;2023-11-21T09:10:01;8.50;99.90
39017;DHT22;24784;45.582;5.276;2023-11-21T09:12:27;8.50;99.90
39017;DHT22;24784;45.582;5.276;2023-11-21T09:14:53;8.50;99.90
39017;DHT22;24784;45.582;5.276;2023-11-21T09:17:19;8.50;99.90
39017;DHT22;24784;45.582;5.276;2023-11-21T09:19:45;8.50;99.90
39017;DHT22;24784;45.582;5.276;2023-11-21T09:22:15;8.50;99.90
39017;DHT22;24784;45.582;5.276;2023-11-21T09:24:41;8.50;99.90
39017;DHT22;24784;45.582;5.276;2023-11-21T09:27:07;8.50;99.90
39017;DHT22;24784;45.582;5.276;2023-11-21T09:29:32;8.60;99.90
39017;DHT22;24784;45.582;5.276;2023-11-21T09:31:58;8.60;99.90
39017;DHT22;24784;45.582;5.276;2023-11-21T09:34:25;8.60;99.90
39017;DHT22;24784;45.582;5.276;2023-11-21T09:36:51;8.50;99.90
39017;DHT22;24784;45.582;5.276;2023-11-21T09:39:17;8.50;99.90
39017;DHT22;24784;45.582;5.276;2023-11-21T09:41:49;8.50;99.90
39017;DHT22;24784;45.582;5.276;2023-11-21T09:44:18;8.50;99.90
39017;DHT22;24784;45.582;5.276;2023-11-21T09:46:47;8.50;99.90
39017;DHT22;24784;45.582;5.276;2023-11-21T09:49:15;8.50;99.90
39017;DHT22;24784;45.582;5.276;2023-11-21T09:51:43;8.60;99.90
39017;DHT22;24784;45.582;5.276;2023-11-21T09:54:10;8.60;99.90
39017;DHT22;24784;45.582;5.276;2023-11-21T09:56:39;8.60;99.90
39017;DHT22;24784;45.582;5.276;2023-11-21T09:59:05;8.70;99.90
39017;DHT22;24784;45.582;5.276;2023-11-21T10:01:36;8.60;99.90
39017;DHT22;24784;45.582;5.276;2023-11-21T10:04:03;8.70;99.90
39017;DHT22;24784;45.582;5.276;2023-11-21T10:06:28;8.70;99.90
39017;DHT22;24784;45.582;5.276;2023-11-21T10:08:56;8.70;99.90
39017;DHT22;24784;45.582;5.276;2023-11-21T10:11:27;8.70;99.90
39017;DHT22;24784;45.582;5.276;2023-11-21T10:13:55;8.70;99.90
39017;DHT22;24784;45.582;5.276;2023-11-21T10:16:25;8.70;99.90
39017;DHT22;24784;45.582;5.276;2023-11-21T10:18:52;8.70;99.90
39017;DHT22;24784;45.582;5.276;2023-11-21T10:21:21;8.70;99.90
39017;DHT22;24784;45.582;5.276;2023-11-21T10:23:47;8.70;99.90
39017;DHT22;24784;45.582;5.276;2023-11-21T10:26:13;8.70;99.90
39017;DHT22;24784;45.582;5.276;2023-11-21T10:29:03;8.60;99.90
39017;DHT22;24784;45.582;5.276;2023-11-21T10:31:32;8.60;99.90
39017;DHT22;24784;45.582;5.276;2023-11-21T10:34:15;8.60;99.90
39017;DHT22;24784;45.582;5.276;2023-11-21T10:36:41;8.70;99.90
39017;DHT22;24784;45.582;5.276;2023-11-21T10:39:07;8.70;99.90
39017;DHT22;24784;45.582;5.276;2023-11-21T10:41:33;8.60;99.90
39017;DHT22;24784;45.582;5.276;2023-11-21T10:44:01;8.70;99.90
39017;DHT22;24784;45.582;5.276;2023-11-21T10:46:29;8.70;99.90
39017;DHT22;24784;45.582;5.276;2023-11-21T10:48:56;8.70;99.90
39017;DHT22;24784;45.582;5.276;2023-11-21T10:51:22;8.70;99.90
39017;DHT22;24784;45.582;5.276;2023-11-21T10:53:52;8.70;99.90
39017;DHT22;24784;45.582;5.276;2023-11-21T10:56:18;8.70;99.90
39017;DHT22;24784;45.582;5.276;2023-11-21T10:58:50;8.70;99.90
39017;DHT22;24784;45.582;5.276;2023-11-21T11:01:18;8.70;99.90
39017;DHT22;24784;45.582;5.276;2023-11-21T11:03:47;8.70;99.90
39017;DHT22;24784;45.582;5.276;2023-11-21T11:06:13;8.70;99.90
39017;DHT22;24784;45.582;5.276;2023-11-21T11:08:40;8.80;99.90
39017;DHT22;24784;45.582;5.276;2023-11-21T11:11:06;8.80;99.90
39017;DHT22;24784;45.582;5.276;2023-11-21T11:13:32;8.80;99.90
39017;DHT22;24784;45.582;5.276;2023-11-21T11:16:00;8.80;99.90
39017;DHT22;24784;45.582;5.276;2023-11-21T11:18:30;8.80;99.90
39017;DHT22;24784;45.582;5.276;2023-11-21T11:21:11;8.80;99.90
39017;DHT22;24784;45.582;5.276;2023-11-21T11:26:49;8.80;99.90
39017;DHT22;24784;45.582;5.276;2023-11-21T11:34:39;9.00;99.90
39017;DHT22;24784;45.582;5.276;2023-11-21T11:37:07;8.90;99.90
39017;DHT22;24784;45.582;5.276;2023-11-21T11:39:41;8.90;99.90
39017;DHT22;24784;45.582;5.276;2023-11-21T11:42:14;9.00;99.90
39017;DHT22;24784;45.582;5.276;2023-11-21T11:47:29;8.90;99.90
39017;DHT22;24784;45.582;5.276;2023-11-21T11:50:07;8.90;99.90
39017;DHT22;24784;45.582;5.276;2023-11-21T11:55:00;8.90;99.90
39017;DHT22;24784;45.582;5.276;2023-11-21T11:57:26;8.90;99.90
39017;DHT22;24784;45.582;5.276;2023-11-21T12:02:38;8.90;99.90
39017;DHT22;24784;45.582;5.276;2023-11-21T12:05:16;8.90;99.90
39017;DHT22;24784;45.582;5.276;2023-11-21T12:07:45;8.90;99.90
39017;DHT22;24784;45.582;5.276;2023-11-21T12:10:14;9.00;99.90
39017;DHT22;24784;45.582;5.276;2023-11-21T12:12:56;9.00;99.90
39017;DHT22;24784;45.582;5.276;2023-11-21T12:15:29;9.00;99.90
39017;DHT22;24784;45.582;5.276;2023-11-21T12:17:57;9.10;99.90
39017;DHT22;24784;45.582;5.276;2023-11-21T12:20:25;9.10;99.90
39017;DHT22;24784;45.582;5.276;2023-11-21T12:22:52;9.20;99.90
39017;DHT22;24784;45.582;5.276;2023-11-21T12:25:24;9.20;99.90
39017;DHT22;24784;45.582;5.276;2023-11-21T12:27:51;9.20;99.90
39017;DHT22;24784;45.582;5.276;2023-11-21T12:30:22;9.20;99.90
39017;DHT22;24784;45.582;5.276;2023-11-21T12:32:53;9.30;99.90
39017;DHT22;24784;45.582;5.276;2023-11-21T12:35:21;9.20;99.90
39017;DHT22;24784;45.582;5.276;2023-11-21T12:37:47;9.30;99.90
39017;DHT22;24784;45.582;5.276;2023-11-21T12:40:14;9.30;99.90
39017;DHT22;24784;45.582;5.276;2023-11-21T12:42:41;9.20;99.90
39017;DHT22;24784;45.582;5.276;2023-11-21T12:45:19;9.30;99.90
39017;DHT22;24784;45.582;5.276;2023-11-21T12:47:49;9.30;99.90
39017;DHT22;24784;45.582;5.276;2023-11-21T12:50:25;9.30;99.90
39017;DHT22;24784;45.582;5.276;2023-11-21T12:52:58;9.40;99.90
39017;DHT22;24784;45.582;5.276;2023-11-21T12:55:24;9.30;99.90
39017;DHT22;24784;45.582;5.276;2023-11-21T12:57:55;9.40;99.90
39017;DHT22;24784;45.582;5.276;2023-11-21T13:00:29;9.40;99.90
39017;DHT22;24784;45.582;5.276;2023-11-21T13:02:58;9.40;99.90
39017;DHT22;24784;45.582;5.276;2023-11-21T13:05:28;9.40;99.90
39017;DHT22;24784;45.582;5.276;2023-11-21T13:07:58;9.40;99.90
39017;DHT22;24784;45.582;5.276;2023-11-21T13:10:26;9.40;99.90
39017;DHT22;24784;45.582;5.276;2023-11-21T13:12:55;9.30;99.90
39017;DHT22;24784;45.582;5.276;2023-11-21T13:15:24;9.40;99.90
39017;DHT22;24784;45.582;5.276;2023-11-21T13:17:50;9.40;99.90
39017;DHT22;24784;45.582;5.276;2023-11-21T13:20:17;9.40;99.90
39017;DHT22;24784;45.582;5.276;2023-11-21T13:22:54;9.50;99.90
39017;DHT22;24784;45.582;5.276;2023-11-21T13:25:26;9.40;99.90
39017;DHT22;24784;45.582;5.276;2023-11-21T13:27:56;9.50;99.90
39017;DHT22;24784;45.582;5.276;2023-11-21T13:30:23;9.60;99.90
39017;DHT22;24784;45.582;5.276;2023-11-21T13:32:53;9.60;99.90
39017;DHT22;24784;45.582;5.276;2023-11-21T13:35:23;9.60;99.90
39017;DHT22;24784;45.582;5.276;2023-11-21T13:37:57;9.50;99.90
39017;DHT22;24784;45.582;5.276;2023-11-21T13:40:26;9.50;99.90
39017;DHT22;24784;45.582;5.276;2023-11-21T13:42:53;9.50;99.90
39017;DHT22;24784;45.582;5.276;2023-11-21T13:45:20;9.40;99.90
39017;DHT22;24784;45.582;5.276;2023-11-21T13:47:47;9.40;99.90
39017;DHT22;24784;45.582;5.276;2023-11-21T13:50:12;9.40;99.90
39017;DHT22;24784;45.582;5.276;2023-11-21T13:52:44;9.40;99.90
39017;DHT22;24784;45.582;5.276;2023-11-21T13:55:13;9.40;99.90
39017;DHT22;24784;45.582;5.276;2023-11-21T13:57:44;9.40;99.90
39017;DHT22;24784;45.582;5.276;2023-11-21T14:00:15;9.50;99.90
39017;DHT22;24784;45.582;5.276;2023-11-21T14:03:00;9.50;99.90
39017;DHT22;24784;45.582;5.276;2023-11-21T14:05:27;9.50;99.90
39017;DHT22;24784;45.582;5.276;2023-11-21T14:07:55;9.50;99.90
39017;DHT22;24784;45.582;5.276;2023-11-21T14:10:27;9.50;99.90
39017;DHT22;24784;45.582;5.276;2023-11-21T14:12:54;9.50;99.90
39017;DHT22;24784;45.582;5.276;2023-11-21T14:15:20;9.50;99.90
39017;DHT22;24784;45.582;5.276;2023-11-21T14:17:45;9.40;99.90
39017;DHT22;24784;45.582;5.276;2023-11-21T14:20:11;9.50;99.90
39017;DHT22;24784;45.582;5.276;2023-11-21T14:22:41;9.50;99.90
39017;DHT22;24784;45.582;5.276;2023-11-21T14:25:07;9.50;99.90
39017;DHT22;24784;45.582;5.276;2023-11-21T14:27:33;9.50;99.90
39017;DHT22;24784;45.582;5.276;2023-11-21T14:29:59;9.60;99.90
39017;DHT22;24784;45.582;5.276;2023-11-21T14:32:24;9.60;99.90
39017;DHT22;24784;45.582;5.276;2023-11-21T14:34:51;9.60;99.90
39017;DHT22;24784;45.582;5.276;2023-11-21T14:37:17;9.60;99.90
39017;DHT22;24784;45.582;5.276;2023-11-21T14:39:43;9.60;99.90
39017;DHT22;24784;45.582;5.276;2023-11-21T14:42:15;9.60;99.90
39017;DHT22;24784;45.582;5.276;2023-11-21T14:44:41;9.60;99.90
39017;DHT22;24784;45.582;5.276;2023-11-21T14:47:08;9.60;99.90
39017;DHT22;24784;45.582;5.276;2023-11-21T14:49:43;9.60;99.90
39017;DHT22;24784;45.582;5.276;2023-11-21T14:52:22;9.60;99.90
39017;DHT22;24784;45.582;5.276;2023-11-21T14:54:56;9.60;99.90
39017;DHT22;24784;45.582;5.276;2023-11-21T14:57:42;9.60;99.90
39017;DHT22;24784;45.582;5.276;2023-11-21T15:00:18;9.50;99.90
39017;DHT22;24784;45.582;5.276;2023-11-21T15:02:59;9.60;99.90
39017;DHT22;24784;45.582;5.276;2023-11-21T15:05:26;9.60;99.90
39017;DHT22;24784;45.582;5.276;2023-11-21T15:07:53;9.50;99.90
39017;DHT22;24784;45.582;5.276;2023-11-21T15:10:22;9.50;99.90
39017;DHT22;24784;45.582;5.276;2023-11-21T15:12:56;9.50;99.90
39017;DHT22;24784;45.582;5.276;2023-11-21T15:15:23;9.50;99.90
39017;DHT22;24784;45.582;5.276;2023-11-21T15:17:48;9.50;99.90
39017;DHT22;24784;45.582;5.276;2023-11-21T15:20:14;9.50;99.90
39017;DHT22;24784;45.582;5.276;2023-11-21T15:22:47;9.50;99.90
39017;DHT22;24784;45.582;5.276;2023-11-21T15:25:12;9.40;99.90
39017;DHT22;24784;45.582;5.276;2023-11-21T15:27:38;9.40;99.90
39017;DHT22;24784;45.582;5.276;2023-11-21T15:30:05;9.40;99.90
39017;DHT22;24784;45.582;5.276;2023-11-21T15:32:31;9.40;99.90
39017;DHT22;24784;45.582;5.276;2023-11-21T15:34:57;9.30;99.90
39017;DHT22;24784;45.582;5.276;2023-11-21T15:37:23;9.30;99.90
39017;DHT22;24784;45.582;5.276;2023-11-21T15:39:50;9.20;99.90
39017;DHT22;24784;45.582;5.276;2023-11-21T15:42:19;9.20;99.90
39017;DHT22;24784;45.582;5.276;2023-11-21T15:44:45;9.10;99.90
39017;DHT22;24784;45.582;5.276;2023-11-21T15:47:11;9.10;99.90
39017;DHT22;24784;45.582;5.276;2023-11-21T15:49:37;9.10;99.90
39017;DHT22;24784;45.582;5.276;2023-11-21T15:52:04;9.00;99.90
39017;DHT22;24784;45.582;5.276;2023-11-21T15:54:31;9.00;99.90
39017;DHT22;24784;45.582;5.276;2023-11-21T15:57:00;9.00;99.90
39017;DHT22;24784;45.582;5.276;2023-11-21T15:59:26;8.90;99.90
39017;DHT22;24784;45.582;5.276;2023-11-21T16:01:57;8.90;99.90